createdAt,value
2022-09-22T00:01:23.723Z,10.00
2022-09-22T00:03:54.248Z,10.00
2022-09-22T00:06:27.213Z,10.00
2022-09-22T00:08:57.837Z,9.90
2022-09-22T00:11:29.149Z,9.90
2022-09-22T00:13:59.928Z,9.80
2022-09-22T00:16:31.785Z,9.80
2022-09-22T00:18:59.652Z,9.90
2022-09-22T00:21:28.078Z,9.90
2022-09-22T00:23:55.462Z,10.00
2022-09-22T00:26:24.152Z,9.90
2022-09-22T00:28:52.944Z,9.90
2022-09-22T00:31:22.980Z,10.00
2022-09-22T00:33:51.820Z,9.90
2022-09-22T00:36:23.092Z,9.90
2022-09-22T00:38:51.639Z,9.90
2022-09-22T00:41:23.357Z,9.90
2022-09-22T00:44:12.685Z,9.90
2022-09-22T00:46:42.479Z,9.90
2022-09-22T00:49:11.843Z,9.90
2022-09-22T00:51:43.443Z,9.90
2022-09-22T00:54:14.433Z,10.00
2022-09-22T00:57:06.219Z,10.00
2022-09-22T00:59:34.117Z,10.10
2022-09-22T01:02:01.621Z,10.10
2022-09-22T01:04:30.011Z,10.10
2022-09-22T01:06:58.967Z,10.10
2022-09-22T01:09:27.269Z,10.10
2022-09-22T01:11:54.696Z,10.10
2022-09-22T01:14:49.842Z,10.10
2022-09-22T01:17:37.425Z,10.10
2022-09-22T01:20:15.343Z,10.10
2022-09-22T01:22:57.023Z,10.10
2022-09-22T01:25:33.666Z,10.10
2022-09-22T01:28:37.900Z,10.00
2022-09-22T01:31:28.330Z,10.00
2022-09-22T01:34:16.364Z,9.90
2022-09-22T01:36:55.505Z,9.90
2022-09-22T01:39:41.926Z,9.90
2022-09-22T01:42:44.507Z,9.90
2022-09-22T01:45:19.517Z,9.90
2022-09-22T01:48:25.499Z,9.90
2022-09-22T01:51:08.626Z,9.90
2022-09-22T01:53:43.814Z,10.00
2022-09-22T01:56:15.060Z,10.00
2022-09-22T01:58:54.165Z,10.00
2022-09-22T02:01:32.149Z,9.90
2022-09-22T02:04:29.364Z,9.90
2022-09-22T02:07:02.068Z,9.90
2022-09-22T02:09:32.984Z,9.80
2022-09-22T02:12:01.362Z,9.70
2022-09-22T02:14:29.379Z,9.70
2022-09-22T02:16:57.317Z,9.70
2022-09-22T02:19:33.981Z,9.70
2022-09-22T02:22:01.663Z,9.70
2022-09-22T02:24:30.530Z,9.70
2022-09-22T02:27:00.557Z,9.60
2022-09-22T02:29:32.027Z,9.60
2022-09-22T02:32:02.448Z,9.60
2022-09-22T02:34:29.963Z,9.50
2022-09-22T02:37:17.983Z,9.40
2022-09-22T02:39:56.565Z,9.40
2022-09-22T02:42:38.846Z,9.50
2022-09-22T02:45:15.449Z,9.50
2022-09-22T02:47:57.330Z,9.50
2022-09-22T02:50:27.785Z,9.50
2022-09-22T02:53:05.118Z,9.50
2022-09-22T02:55:32.606Z,9.50
2022-09-22T02:57:59.977Z,9.50
2022-09-22T03:00:27.662Z,9.50
2022-09-22T03:02:54.989Z,9.60
2022-09-22T03:05:22.295Z,9.50
2022-09-22T03:07:49.680Z,9.50
2022-09-22T03:10:17.255Z,9.50
2022-09-22T03:13:09.161Z,9.40
2022-09-22T03:15:32.347Z,9.40
2022-09-22T03:17:59.916Z,9.40
2022-09-22T03:20:27.313Z,9.50
2022-09-22T03:22:54.664Z,9.50
2022-09-22T03:25:22.091Z,9.50
2022-09-22T03:27:49.602Z,9.50
2022-09-22T03:30:17.149Z,9.50
2022-09-22T03:32:44.526Z,9.50
2022-09-22T03:35:11.907Z,9.50
2022-09-22T03:37:39.266Z,9.50
2022-09-22T03:40:07.137Z,9.50
2022-09-22T03:42:35.478Z,9.50
2022-09-22T03:45:05.967Z,9.40
2022-09-22T03:47:33.414Z,9.50
2022-09-22T03:50:00.825Z,9.40
2022-09-22T03:52:28.230Z,9.40
2022-09-22T03:54:55.693Z,9.40
2022-09-22T03:57:23.214Z,9.40
2022-09-22T03:59:50.659Z,9.40
2022-09-22T04:02:18.557Z,9.50
2022-09-22T04:04:46.075Z,9.50
2022-09-22T04:07:13.530Z,9.60
2022-09-22T04:09:42.055Z,9.60
2022-09-22T04:12:09.949Z,9.60
2022-09-22T04:14:37.304Z,9.70
2022-09-22T04:17:06.039Z,9.70
2022-09-22T04:19:36.751Z,9.70
2022-09-22T04:22:04.606Z,9.70
2022-09-22T04:24:31.984Z,9.70
2022-09-22T04:27:18.978Z,9.80
2022-09-22T04:29:46.706Z,9.70
2022-09-22T04:32:14.672Z,9.80
2022-09-22T04:34:43.059Z,9.80
2022-09-22T04:37:11.561Z,9.80
2022-09-22T04:39:39.066Z,9.80
2022-09-22T04:42:08.914Z,9.80
2022-09-22T04:44:36.408Z,9.70
2022-09-22T04:47:04.657Z,9.70
2022-09-22T04:49:31.978Z,9.70
2022-09-22T04:51:59.448Z,9.70
2022-09-22T04:54:26.896Z,9.60
2022-09-22T04:56:54.237Z,9.60
2022-09-22T04:59:21.641Z,9.60
2022-09-22T05:01:49.083Z,9.70
2022-09-22T05:04:16.480Z,9.70
2022-09-22T05:06:44.061Z,9.70
2022-09-22T05:09:11.463Z,9.70
2022-09-22T05:11:39.687Z,9.80
2022-09-22T05:14:07.082Z,9.80
2022-09-22T05:16:35.350Z,9.90
2022-09-22T05:19:02.871Z,9.90
2022-09-22T05:21:30.260Z,10.00
2022-09-22T05:23:57.673Z,10.00
2022-09-22T05:26:25.440Z,10.00
2022-09-22T05:28:52.908Z,10.10
2022-09-22T05:31:20.371Z,10.10
2022-09-22T05:33:47.761Z,10.10
2022-09-22T05:36:15.094Z,10.10
2022-09-22T05:38:42.729Z,10.10
2022-09-22T05:41:10.111Z,10.10
2022-09-22T05:43:37.433Z,10.10
2022-09-22T05:46:04.983Z,10.10
2022-09-22T05:48:32.394Z,10.10
2022-09-22T05:50:59.733Z,10.10
2022-09-22T05:53:27.759Z,10.10
2022-09-22T05:55:57.129Z,10.20
2022-09-22T05:58:24.442Z,10.20
2022-09-22T06:00:51.841Z,10.30
2022-09-22T06:03:19.519Z,10.30
2022-09-22T06:05:46.906Z,10.30
2022-09-22T06:08:14.342Z,10.40
2022-09-22T06:10:42.234Z,10.40
2022-09-22T06:13:11.271Z,10.50
2022-09-22T06:15:39.599Z,10.50
2022-09-22T06:18:13.208Z,10.50
2022-09-22T06:20:44.571Z,10.60
2022-09-22T06:23:15.556Z,10.60
2022-09-22T06:25:44.231Z,10.70
2022-09-22T06:28:14.660Z,10.70
2022-09-22T06:30:42.685Z,10.70
2022-09-22T06:33:11.479Z,10.70
2022-09-22T06:35:43.055Z,10.60
2022-09-22T06:38:15.092Z,10.50
2022-09-22T06:40:43.519Z,10.50
2022-09-22T06:43:20.527Z,10.50
2022-09-22T06:45:48.283Z,10.60
2022-09-22T06:48:15.718Z,10.70
2022-09-22T06:50:49.082Z,10.70
2022-09-22T06:53:16.474Z,10.70
2022-09-22T06:55:44.129Z,10.80
2022-09-22T06:58:12.737Z,10.60
2022-09-22T07:00:43.041Z,10.60
2022-09-22T07:03:20.831Z,10.60
2022-09-22T07:06:03.405Z,10.60
2022-09-22T07:08:33.784Z,10.70
2022-09-22T07:11:04.104Z,10.80
2022-09-22T07:13:32.787Z,10.80
2022-09-22T07:16:07.934Z,10.90
2022-09-22T07:18:36.342Z,10.90
2022-09-22T07:21:18.202Z,11.00
2022-09-22T07:23:45.522Z,11.10
2022-09-22T07:26:16.018Z,11.20
2022-09-22T07:28:46.949Z,11.20
2022-09-22T07:31:16.552Z,11.20
2022-09-22T07:33:45.945Z,11.30
2022-09-22T07:36:19.658Z,11.30
2022-09-22T07:38:49.931Z,11.40
2022-09-22T07:41:20.488Z,11.40
2022-09-22T07:43:51.349Z,11.40
2022-09-22T07:46:19.367Z,11.20
2022-09-22T07:48:49.924Z,11.30
2022-09-22T07:51:20.841Z,11.20
2022-09-22T08:58:29.674Z,11.80
2022-09-22T09:01:35.417Z,11.90
2022-09-22T09:04:20.890Z,11.90
2022-09-22T09:06:56.037Z,12.10
2022-09-22T09:09:23.425Z,12.20
2022-09-22T09:12:11.256Z,12.40
2022-09-22T09:14:51.592Z,12.60
2022-09-22T09:17:24.398Z,12.80
2022-09-22T09:20:03.777Z,12.80
2022-09-22T09:22:55.960Z,12.80
2022-09-22T09:25:36.852Z,12.70
2022-09-22T09:28:07.493Z,12.70
2022-09-22T09:30:49.585Z,12.80
2022-09-22T09:33:41.308Z,12.90
2022-09-22T09:38:55.568Z,12.90
2022-09-22T09:41:28.369Z,13.00
2022-09-22T09:43:56.330Z,13.00
2022-09-22T09:46:40.296Z,13.00
2022-09-22T09:49:19.419Z,13.00
2022-09-22T09:51:55.814Z,13.10
2022-09-22T09:54:23.720Z,13.30
2022-09-22T09:57:09.882Z,13.40
2022-09-22T10:00:01.396Z,13.50
2022-09-22T10:02:32.501Z,13.50
2022-09-22T10:05:04.926Z,13.40
2022-09-22T10:07:42.176Z,13.30
2022-09-22T10:10:37.276Z,13.50
2022-09-22T10:13:04.730Z,13.90
2022-09-22T10:15:37.491Z,14.20
2022-09-22T10:18:26.166Z,14.10
2022-09-22T10:21:03.803Z,14.20
2022-09-22T10:23:33.084Z,14.20
2022-09-22T10:26:32.324Z,14.00
2022-09-22T10:29:18.966Z,14.20
2022-09-22T10:32:16.970Z,14.70
2022-09-22T10:34:51.900Z,14.90
2022-09-22T10:37:29.897Z,15.10
2022-09-22T10:40:03.523Z,15.20
2022-09-22T10:42:45.532Z,15.30
2022-09-22T10:45:15.540Z,15.60
2022-09-22T10:48:00.366Z,15.40
2022-09-22T10:50:58.944Z,14.90
2022-09-22T10:54:06.392Z,15.20
2022-09-22T10:56:37.141Z,15.50
2022-09-22T10:59:44.273Z,15.80
2022-09-22T11:02:18.470Z,16.00
2022-09-22T11:04:54.881Z,15.90
2022-09-22T11:07:47.075Z,16.20
2022-09-22T11:10:41.752Z,17.00
2022-09-22T11:13:17.025Z,17.40
2022-09-22T11:15:59.411Z,17.00
2022-09-22T11:18:55.997Z,16.80
2022-09-22T11:21:53.880Z,17.10
2022-09-22T11:30:44.777Z,16.80
2022-09-22T11:33:48.138Z,18.00
2022-09-22T12:16:11.429Z,18.60
2022-09-22T12:18:42.474Z,18.80
2022-09-22T12:21:12.665Z,19.00
2022-09-22T12:23:51.287Z,19.30
2022-09-22T12:26:31.410Z,19.80
2022-09-22T12:29:01.526Z,20.00
2022-09-22T12:31:42.593Z,19.70
2022-09-22T12:34:20.819Z,19.20
2022-09-22T12:36:51.297Z,19.60
2022-09-22T12:39:31.125Z,20.70
2022-09-22T12:42:04.873Z,21.20
2022-09-22T12:44:37.395Z,21.40
2022-09-22T12:47:34.594Z,21.90
2022-09-22T12:50:07.530Z,21.70
2022-09-22T12:52:40.790Z,21.00
2022-09-22T12:55:20.027Z,20.60
2022-09-22T12:57:50.509Z,19.60
2022-09-22T13:00:33.389Z,18.70
2022-09-22T13:03:01.873Z,18.10
2022-09-22T13:05:29.185Z,17.60
2022-09-22T13:07:56.551Z,17.20
2022-09-22T13:10:23.925Z,18.00
2022-09-22T13:13:06.254Z,19.50
2022-09-22T13:15:45.937Z,20.30
2022-09-22T13:18:46.582Z,20.10
2022-09-22T13:21:13.853Z,20.00
2022-09-22T13:23:59.050Z,20.00
2022-09-22T13:26:40.935Z,19.80
2022-09-22T13:29:20.401Z,19.30
2022-09-22T13:31:51.278Z,18.80
2022-09-22T13:34:30.231Z,18.40
2022-09-22T13:36:57.811Z,18.20
2022-09-22T13:39:28.619Z,18.10
2022-09-22T13:42:04.158Z,18.20
2022-09-22T13:44:34.496Z,18.20
2022-09-22T13:47:07.123Z,18.20
2022-09-22T13:49:44.905Z,18.60
2022-09-22T13:52:28.170Z,19.80
2022-09-22T13:55:05.323Z,21.20
2022-09-22T13:57:37.761Z,21.90
2022-09-22T14:00:08.773Z,21.80
2022-09-22T14:02:36.832Z,21.00
2022-09-22T14:05:08.269Z,20.50
2022-09-22T14:07:55.305Z,19.30
2022-09-22T14:10:28.028Z,18.70
2022-09-22T14:12:55.887Z,19.50
2022-09-22T14:15:38.115Z,20.40
2022-09-22T14:18:16.958Z,21.00
2022-09-22T14:20:45.432Z,21.20
2022-09-22T14:23:29.483Z,21.00
2022-09-22T14:25:58.714Z,20.20
2022-09-22T14:28:29.911Z,19.50
2022-09-22T14:30:57.355Z,19.10
2022-09-22T14:33:30.352Z,18.80
2022-09-22T14:36:08.373Z,17.90
2022-09-22T14:38:43.069Z,17.30
2022-09-22T14:41:22.472Z,17.10
2022-09-22T14:43:50.962Z,16.60
2022-09-22T14:46:23.105Z,16.40
2022-09-22T14:48:51.131Z,16.30
2022-09-22T14:51:22.008Z,15.90
2022-09-22T14:53:57.791Z,15.70
2022-09-22T14:56:28.984Z,15.40
2022-09-22T14:59:25.526Z,15.20
2022-09-22T15:02:13.353Z,15.00
2022-09-22T15:04:51.234Z,14.70
2022-09-22T15:07:29.281Z,14.20
2022-09-22T15:10:02.845Z,13.60
2022-09-22T15:12:46.229Z,13.10
2022-09-22T15:15:19.324Z,12.70
2022-09-22T15:18:10.209Z,12.30
2022-09-22T15:20:47.194Z,12.20
2022-09-22T15:23:42.019Z,12.10
2022-09-22T15:26:19.813Z,12.00
2022-09-22T15:28:51.087Z,11.90
2022-09-22T15:31:25.450Z,11.80
2022-09-22T15:33:53.638Z,11.70
2022-09-22T15:36:22.778Z,11.70
2022-09-22T15:38:50.392Z,11.70
2022-09-22T15:41:17.725Z,11.60
2022-09-22T15:43:45.332Z,11.50
2022-09-22T15:46:34.043Z,11.50
2022-09-22T15:49:26.636Z,11.50
2022-09-22T15:51:57.587Z,11.40
2022-09-22T15:54:26.408Z,11.30
2022-09-22T15:56:55.951Z,11.40
2022-09-22T15:59:27.043Z,11.40
2022-09-22T16:01:59.566Z,11.40
2022-09-22T16:04:31.633Z,11.40
2022-09-22T16:07:04.071Z,11.40
2022-09-22T16:09:32.037Z,11.40
2022-09-22T16:11:59.772Z,11.30
2022-09-22T16:14:27.181Z,11.30
2022-09-22T16:16:54.620Z,11.30
2022-09-22T16:19:21.969Z,11.30
2022-09-22T16:21:54.359Z,11.30
2022-09-22T16:24:22.706Z,11.20
2022-09-22T16:26:51.912Z,11.20
2022-09-22T16:29:19.572Z,11.10
2022-09-22T16:31:47.038Z,11.00
2022-09-22T16:34:14.494Z,11.00
2022-09-22T16:36:41.942Z,11.00
2022-09-22T16:39:09.409Z,11.00
2022-09-22T16:41:37.124Z,11.00
2022-09-22T16:44:04.986Z,11.00
2022-09-22T16:46:37.951Z,11.00
2022-09-22T16:49:11.788Z,11.00
2022-09-22T16:51:44.399Z,10.90
2022-09-22T16:54:13.947Z,10.90
2022-09-22T16:56:44.225Z,10.80
2022-09-22T16:59:15.290Z,10.70
2022-09-22T17:01:43.876Z,10.70
2022-09-22T17:04:13.239Z,10.60
2022-09-22T17:06:41.823Z,10.60
2022-09-22T17:09:10.573Z,10.50
2022-09-22T17:11:40.311Z,10.50
2022-09-22T17:14:12.551Z,10.40
2022-09-22T17:16:49.880Z,10.50
2022-09-22T17:19:20.072Z,10.50
2022-09-22T17:21:49.347Z,10.40
2022-09-22T17:24:17.022Z,10.40
2022-09-22T17:26:47.918Z,10.40
2022-09-22T17:29:17.694Z,10.30
2022-09-22T17:31:48.118Z,10.30
2022-09-22T17:34:16.096Z,10.30
2022-09-22T17:36:43.492Z,10.20
2022-09-22T17:39:10.931Z,10.20
2022-09-22T17:41:45.570Z,10.20
2022-09-22T17:44:14.776Z,10.20
2022-09-22T17:47:02.092Z,10.20
2022-09-22T17:49:47.855Z,10.10
2022-09-22T17:52:28.429Z,10.00
2022-09-22T17:55:11.003Z,10.00
2022-09-22T17:57:45.717Z,9.90
2022-09-22T18:00:16.653Z,9.80
2022-09-22T18:02:44.978Z,9.70
2022-09-22T18:05:14.653Z,9.80
2022-09-22T18:07:42.616Z,9.80
2022-09-22T18:10:12.279Z,9.80
2022-09-22T18:12:40.424Z,9.70
2022-09-22T18:15:12.821Z,9.60
2022-09-22T18:17:42.011Z,9.60
2022-09-22T18:20:15.001Z,9.60
2022-09-22T18:22:47.979Z,9.60
2022-09-22T18:25:19.406Z,9.60
2022-09-22T18:27:48.636Z,9.60
2022-09-22T18:30:18.517Z,9.60
2022-09-22T18:32:46.873Z,9.50
2022-09-22T18:35:14.569Z,9.50
2022-09-22T18:37:42.138Z,9.50
2022-09-22T18:40:12.428Z,9.50
2022-09-22T18:42:41.593Z,9.60
2022-09-22T18:45:11.144Z,9.60
2022-09-22T18:47:41.404Z,9.60
2022-09-22T18:50:09.682Z,9.60
2022-09-22T18:52:37.486Z,9.60
2022-09-22T18:55:09.404Z,9.60
2022-09-22T18:57:36.796Z,9.70
2022-09-22T19:00:04.664Z,9.80
2022-09-22T19:02:32.209Z,9.80
2022-09-22T19:04:59.614Z,9.80
2022-09-22T19:07:42.432Z,9.90
2022-09-22T19:10:12.929Z,9.80
2022-09-22T19:12:40.712Z,9.80
2022-09-22T19:15:13.705Z,9.80
2022-09-22T19:17:44.287Z,9.80
2022-09-22T19:20:22.595Z,9.90
2022-09-22T19:22:50.767Z,9.90
2022-09-22T19:25:21.953Z,9.90
2022-09-22T19:27:53.086Z,9.90
2022-09-22T19:30:24.021Z,9.90
2022-09-22T19:32:54.735Z,9.90
2022-09-22T19:35:22.287Z,9.90
2022-09-22T19:37:51.997Z,9.80
2022-09-22T19:40:24.500Z,9.90
2022-09-22T19:42:53.557Z,9.90
2022-09-22T19:45:21.847Z,9.90
2022-09-22T19:47:49.242Z,9.90
2022-09-22T19:50:17.199Z,10.00
2022-09-22T19:52:44.637Z,10.00
2022-09-22T19:55:12.070Z,9.90
2022-09-22T19:57:41.769Z,9.90
2022-09-22T20:00:17.783Z,9.90
2022-09-22T20:02:45.697Z,9.90
2022-09-22T20:05:21.709Z,9.90
2022-09-22T20:07:49.702Z,10.00
2022-09-22T20:10:19.366Z,9.90
2022-09-22T20:12:46.799Z,10.00
2022-09-22T20:15:17.532Z,10.00
2022-09-22T20:17:46.613Z,9.90
2022-09-22T20:20:19.837Z,9.90
2022-09-22T20:22:49.988Z,9.90
2022-09-22T20:25:25.327Z,9.90
2022-09-22T20:27:52.748Z,9.90
2022-09-22T20:30:20.131Z,9.90
2022-09-22T20:32:47.722Z,9.90
2022-09-22T20:35:18.140Z,9.90
2022-09-22T20:37:45.616Z,9.90
2022-09-22T20:40:17.327Z,10.00
2022-09-22T20:42:45.840Z,10.00
2022-09-22T20:45:13.358Z,9.90
2022-09-22T20:47:40.859Z,9.90
2022-09-22T20:50:10.101Z,9.90
2022-09-22T20:52:39.233Z,10.00
2022-09-22T20:55:07.826Z,10.00
2022-09-22T20:57:35.215Z,9.90
2022-09-22T21:00:03.107Z,9.80
2022-09-22T21:02:31.293Z,9.80
2022-09-22T21:04:58.753Z,9.80
2022-09-22T21:07:26.189Z,9.80
2022-09-22T21:10:12.154Z,9.80
2022-09-22T21:12:40.519Z,9.70
2022-09-22T21:15:08.302Z,9.60
2022-09-22T21:17:35.719Z,9.50
2022-09-22T21:20:03.633Z,9.50
2022-09-22T21:22:31.242Z,9.50
2022-09-22T21:24:58.609Z,9.60
2022-09-22T21:27:26.024Z,9.60
2022-09-22T21:29:53.552Z,9.60
2022-09-22T21:32:21.040Z,9.70
2022-09-22T21:34:48.489Z,9.70
2022-09-22T21:37:15.923Z,9.80
2022-09-22T21:39:43.299Z,9.80
2022-09-22T21:42:10.598Z,9.70
2022-09-22T21:44:37.979Z,9.80
2022-09-22T21:47:05.402Z,9.90
2022-09-22T21:49:33.145Z,9.90
2022-09-22T21:52:01.233Z,9.80
2022-09-22T21:54:28.625Z,9.80
2022-09-22T21:56:56.779Z,9.90
2022-09-22T21:59:24.189Z,9.80
2022-09-22T22:01:51.720Z,9.70
2022-09-22T22:04:19.240Z,9.70
2022-09-22T22:06:47.001Z,9.70
2022-09-22T22:09:17.185Z,9.80
2022-09-22T22:11:50.349Z,9.80
2022-09-22T22:14:20.022Z,9.80
2022-09-22T22:16:50.539Z,9.80
2022-09-22T22:19:20.399Z,9.80
2022-09-22T22:21:50.906Z,9.80
2022-09-22T22:24:23.987Z,9.80
2022-09-22T22:26:57.331Z,9.80
2022-09-22T22:29:26.878Z,9.80
2022-09-22T22:31:54.555Z,9.80
2022-09-22T22:34:25.654Z,9.70
2022-09-22T22:36:53.527Z,9.80
2022-09-22T22:39:21.515Z,9.80
2022-09-22T22:41:48.964Z,9.80
2022-09-22T22:44:17.995Z,9.80
2022-09-22T22:46:46.055Z,9.70
2022-09-22T22:49:13.640Z,9.80
2022-09-22T22:51:43.491Z,9.70
2022-09-22T22:54:12.212Z,9.70
2022-09-22T22:56:42.511Z,9.60
2022-09-22T22:59:11.394Z,9.70
2022-09-22T23:01:40.548Z,9.60
2022-09-22T23:04:10.090Z,9.60
2022-09-22T23:06:40.031Z,9.70
2022-09-22T23:09:11.220Z,9.60
2022-09-22T23:11:40.096Z,9.60
2022-09-22T23:14:11.486Z,9.60
2022-09-22T23:16:41.631Z,9.50
2022-09-22T23:19:12.227Z,9.50
2022-09-22T23:21:40.448Z,9.50
2022-09-22T23:24:08.764Z,9.40
2022-09-22T23:26:37.515Z,9.30
2022-09-22T23:29:06.164Z,9.40
2022-09-22T23:31:33.693Z,9.40
2022-09-22T23:34:01.354Z,9.40
2022-09-22T23:36:29.914Z,9.30
2022-09-22T23:39:04.147Z,9.30
2022-09-22T23:41:33.845Z,9.30
2022-09-22T23:44:03.016Z,9.30
2022-09-22T23:46:31.425Z,9.30
2022-09-22T23:49:00.357Z,9.40
2022-09-22T23:51:28.421Z,9.40
2022-09-22T23:53:56.408Z,9.40
2022-09-22T23:56:24.729Z,9.30
2022-09-22T23:58:52.445Z,9.30
